createdAt,value
2024-01-15T00:04:24.397Z,76.46
2024-01-15T00:09:27.254Z,76.57
2024-01-15T00:14:29.214Z,75.77
2024-01-15T00:19:30.905Z,75.66
2024-01-15T00:24:33.964Z,76.26
2024-01-15T00:29:35.491Z,76.00
2024-01-15T00:34:37.274Z,75.94
2024-01-15T00:39:40.251Z,76.49
2024-01-15T00:44:43.252Z,76.42
2024-01-15T00:49:44.979Z,76.53
2024-01-15T00:54:48.107Z,76.39
2024-01-15T00:59:49.703Z,76.27
2024-01-15T01:04:51.262Z,76.09
2024-01-15T01:09:54.236Z,75.96
2024-01-15T01:14:55.803Z,76.03
2024-01-15T01:19:57.667Z,76.33
2024-01-15T01:25:00.822Z,76.63
2024-01-15T01:30:02.678Z,76.41
2024-01-15T01:35:05.211Z,76.53
2024-01-15T01:40:09.470Z,77.10
2024-01-15T01:45:11.850Z,76.55
2024-01-15T01:50:14.104Z,77.49
2024-01-15T01:55:17.270Z,77.66
2024-01-15T02:00:19.341Z,78.37
2024-01-15T02:05:21.118Z,77.20
2024-01-15T02:10:24.061Z,77.40
2024-01-15T02:15:25.824Z,77.86
2024-01-15T02:20:27.750Z,77.50
2024-01-15T02:25:30.679Z,77.36
2024-01-15T02:30:32.875Z,77.16
2024-01-15T02:35:34.795Z,76.81
2024-01-15T02:40:39.646Z,76.66
2024-01-15T02:45:41.649Z,76.78
2024-01-15T02:50:43.353Z,75.96
2024-01-15T02:55:46.251Z,76.11
2024-01-15T03:00:47.937Z,76.00
2024-01-15T03:05:49.489Z,75.78
2024-01-15T03:10:52.407Z,75.85
2024-01-15T03:15:53.944Z,75.36
2024-01-15T03:20:55.458Z,75.47
2024-01-15T03:25:58.506Z,75.16
2024-01-15T03:31:00.161Z,74.97
2024-01-15T03:36:01.842Z,75.23
2024-01-15T03:41:04.758Z,74.91
2024-01-15T03:46:06.496Z,74.88
2024-01-15T03:51:08.048Z,75.10
2024-01-15T03:56:10.968Z,75.19
2024-01-15T04:01:13.438Z,74.88
2024-01-15T04:06:15.128Z,74.85
2024-01-15T04:11:18.084Z,74.15
2024-01-15T04:16:19.592Z,73.70
2024-01-15T04:21:21.144Z,73.17
2024-01-15T04:26:24.069Z,73.43
2024-01-15T04:31:26.773Z,72.99
2024-01-15T04:36:28.467Z,73.19
2024-01-15T04:41:31.337Z,72.38
2024-01-15T04:46:32.996Z,71.98
2024-01-15T04:51:35.448Z,72.76
2024-01-15T04:56:38.295Z,73.87
2024-01-15T05:01:39.960Z,75.10
2024-01-15T05:06:41.623Z,75.08
2024-01-15T05:11:44.560Z,75.21
2024-01-15T05:16:47.923Z,74.87
2024-01-15T05:21:49.597Z,75.55
2024-01-15T05:26:52.840Z,76.15
2024-01-15T05:31:54.581Z,77.72
2024-01-15T05:36:56.262Z,77.52
2024-01-15T05:41:59.605Z,78.00
2024-01-15T05:47:01.260Z,78.46
2024-01-15T05:52:02.971Z,78.27
2024-01-15T05:57:05.908Z,77.95
2024-01-15T06:02:07.434Z,78.23
2024-01-15T06:07:09.122Z,77.40
2024-01-15T06:12:12.117Z,77.51
2024-01-15T06:17:13.700Z,77.15
2024-01-15T06:22:15.299Z,76.72
2024-01-15T06:27:18.247Z,77.05
2024-01-15T06:32:19.924Z,76.70
2024-01-15T06:37:21.534Z,76.92
2024-01-15T06:42:24.504Z,76.89
2024-01-15T06:47:26.161Z,77.28
2024-01-15T06:52:27.761Z,77.57
2024-01-15T06:57:30.651Z,77.40
2024-01-15T07:02:32.288Z,77.80
2024-01-15T07:07:34.004Z,77.02
2024-01-15T07:12:37.142Z,76.46
2024-01-15T07:17:38.743Z,75.42
2024-01-15T07:22:40.287Z,75.54
2024-01-15T07:27:43.277Z,75.37
2024-01-15T07:32:44.887Z,75.52
2024-01-15T07:37:46.466Z,75.59
2024-01-15T07:42:49.405Z,74.59
2024-01-15T07:47:51.278Z,74.29
2024-01-15T07:52:52.840Z,74.03
2024-01-15T07:58:02.544Z,73.74
2024-01-15T08:03:08.339Z,73.10
2024-01-15T08:08:09.978Z,72.77
2024-01-15T08:13:13.013Z,73.13
2024-01-15T08:18:14.794Z,71.84
2024-01-15T08:23:16.443Z,72.07
2024-01-15T08:28:19.337Z,71.85
2024-01-15T08:33:22.362Z,71.46
2024-01-15T08:38:24.429Z,71.28
2024-01-15T08:43:27.473Z,70.45
2024-01-15T08:48:29.140Z,70.20
2024-01-15T08:53:30.838Z,69.77
2024-01-15T08:58:33.762Z,70.00
2024-01-15T09:03:35.643Z,69.12
2024-01-15T09:08:37.207Z,68.79
2024-01-15T09:13:40.071Z,67.34
2024-01-15T09:18:41.670Z,66.00
2024-01-15T09:23:43.550Z,65.72
2024-01-15T09:28:46.512Z,64.19
2024-01-15T09:33:48.555Z,64.41
2024-01-15T09:38:50.289Z,63.13
2024-01-15T09:43:53.276Z,63.30
2024-01-15T09:48:54.919Z,62.32
2024-01-15T09:53:56.827Z,64.09
2024-01-15T09:59:00.938Z,60.77
2024-01-15T10:04:02.601Z,60.85
2024-01-15T10:09:04.429Z,60.44
2024-01-15T10:14:07.562Z,60.17
2024-01-15T10:19:09.517Z,61.39
2024-01-15T10:24:11.204Z,60.27
2024-01-15T10:29:15.999Z,60.08
2024-01-15T10:34:17.759Z,60.49
2024-01-15T10:39:19.370Z,58.74
2024-01-15T10:44:22.382Z,59.86
2024-01-15T10:49:24.387Z,59.59
2024-01-15T10:54:28.151Z,59.35
2024-01-15T10:59:31.459Z,60.02
2024-01-15T11:04:33.777Z,59.85
2024-01-15T11:09:36.088Z,60.29
2024-01-15T11:14:42.150Z,60.38
2024-01-15T11:19:45.336Z,60.61
2024-01-15T11:24:47.201Z,61.10
2024-01-15T11:30:04.337Z,61.20
2024-01-15T11:35:06.834Z,60.42
2024-01-15T11:40:08.973Z,59.99
2024-01-15T11:45:11.993Z,60.82
2024-01-15T11:50:13.727Z,59.59
2024-01-15T11:55:20.148Z,60.01
2024-01-15T12:00:24.914Z,60.47
2024-01-15T12:05:26.804Z,61.08
2024-01-15T12:10:28.300Z,61.50
2024-01-15T12:15:31.975Z,61.16
2024-01-15T12:20:33.721Z,61.49
2024-01-15T12:25:35.600Z,62.29
2024-01-15T12:30:38.705Z,62.66
2024-01-15T12:35:40.454Z,64.18
2024-01-15T12:40:46.177Z,64.62
2024-01-15T12:45:51.784Z,63.22
2024-01-15T12:50:53.535Z,63.12
2024-01-15T12:55:55.322Z,61.79
2024-01-15T13:00:58.360Z,62.57
2024-01-15T13:06:00.172Z,62.45
2024-01-15T13:11:01.902Z,63.50
2024-01-15T13:16:05.563Z,63.71
2024-01-15T13:21:07.170Z,63.03
2024-01-15T13:26:08.666Z,63.46
2024-01-15T13:31:11.674Z,64.32
2024-01-15T13:36:13.330Z,65.53
2024-01-15T13:41:14.954Z,67.92
2024-01-15T13:46:17.849Z,69.58
2024-01-15T13:51:19.546Z,70.98
2024-01-15T13:56:21.689Z,70.51
2024-01-15T14:01:25.153Z,69.88
2024-01-15T14:06:26.876Z,72.14
2024-01-15T14:11:28.524Z,73.30
2024-01-15T14:16:31.423Z,75.48
2024-01-15T14:21:33.026Z,76.30
2024-01-15T14:26:34.648Z,76.30
2024-01-15T14:31:37.624Z,76.95
2024-01-15T14:36:39.387Z,78.61
2024-01-15T14:41:40.974Z,79.61
2024-01-15T14:46:43.807Z,80.42
2024-01-15T14:51:45.364Z,81.29
2024-01-15T14:56:46.955Z,80.62
2024-01-15T15:01:51.185Z,81.13
2024-01-15T15:06:52.978Z,81.46
2024-01-15T15:11:54.658Z,82.41
2024-01-15T15:16:57.463Z,82.49
2024-01-15T15:21:59.173Z,82.17
2024-01-15T15:27:00.762Z,82.00
2024-01-15T15:32:03.894Z,82.85
2024-01-15T15:37:05.512Z,84.40
2024-01-15T15:42:07.121Z,84.54
2024-01-15T15:47:10.391Z,85.11
2024-01-15T15:52:11.934Z,84.74
2024-01-15T15:57:13.663Z,84.97
2024-01-15T16:02:16.598Z,85.02
2024-01-15T16:07:18.164Z,84.46
2024-01-15T16:12:19.808Z,83.09
2024-01-15T16:23:15.473Z,77.74
2024-01-15T16:23:43.607Z,74.72
2024-01-15T16:28:06.388Z,75.49
2024-01-15T16:33:09.367Z,74.96
2024-01-15T16:38:11.041Z,73.75
2024-01-15T16:43:12.568Z,73.61
2024-01-15T16:48:15.734Z,73.81
2024-01-15T16:53:17.422Z,73.38
2024-01-15T16:58:19.002Z,73.17
2024-01-15T17:03:22.009Z,72.51
2024-01-15T17:08:23.662Z,72.76
2024-01-15T17:13:25.243Z,73.94
2024-01-15T17:18:28.255Z,72.45
2024-01-15T17:23:30.386Z,71.17
2024-01-15T17:28:31.931Z,72.44
2024-01-15T17:33:34.891Z,71.76
2024-01-15T17:38:36.572Z,72.25
2024-01-15T17:43:38.275Z,71.80
2024-01-15T17:48:41.450Z,72.33
2024-01-15T17:53:43.168Z,72.17
2024-01-15T17:58:44.763Z,73.12
2024-01-15T18:03:47.849Z,71.86
2024-01-15T18:08:49.391Z,71.90
2024-01-15T18:13:51.651Z,72.27
2024-01-15T18:18:54.705Z,72.45
2024-01-15T18:23:56.523Z,72.78
2024-01-15T18:28:58.114Z,72.86
2024-01-15T18:34:01.113Z,73.19
2024-01-15T18:39:02.721Z,73.68
2024-01-15T18:44:04.376Z,72.58
2024-01-15T18:49:07.668Z,73.14
2024-01-15T18:54:09.371Z,73.59
2024-01-15T18:59:11.228Z,73.52
2024-01-15T19:04:14.306Z,72.57
2024-01-15T19:09:15.977Z,72.73
2024-01-15T19:14:17.550Z,72.07
2024-01-15T19:19:20.565Z,72.17
2024-01-15T19:24:22.214Z,72.08
2024-01-15T19:29:23.796Z,70.10
2024-01-15T19:34:26.771Z,70.28
2024-01-15T19:39:28.353Z,70.88
2024-01-15T19:44:30.057Z,69.87
2024-01-15T19:49:33.543Z,70.20
2024-01-15T19:54:35.250Z,70.49
2024-01-15T19:59:36.874Z,68.95
2024-01-15T20:04:39.892Z,69.22
2024-01-15T20:09:41.444Z,69.00
2024-01-15T20:14:43.012Z,69.45
2024-01-15T20:19:46.105Z,69.70
2024-01-15T20:24:48.369Z,70.34
2024-01-15T20:29:50.123Z,70.50
2024-01-15T20:34:53.198Z,70.03
2024-01-15T20:39:54.733Z,70.15
2024-01-15T20:44:56.338Z,69.24
2024-01-15T20:49:59.338Z,69.49
2024-01-15T20:55:01.107Z,69.54
2024-01-15T21:00:02.772Z,70.26
2024-01-15T21:05:07.102Z,70.28
2024-01-15T21:10:09.093Z,69.85
2024-01-15T21:15:10.741Z,70.21
2024-01-15T21:20:14.067Z,68.93
2024-01-15T21:25:15.849Z,69.38
2024-01-15T21:30:17.385Z,69.50
2024-01-15T21:35:20.535Z,69.11
2024-01-15T21:40:22.109Z,69.46
2024-01-15T21:45:23.711Z,69.94
2024-01-15T21:50:26.683Z,69.28
2024-01-15T21:55:28.270Z,69.66
2024-01-15T22:00:29.906Z,69.22
2024-01-15T22:05:32.903Z,69.59
2024-01-15T22:10:34.494Z,69.23
2024-01-15T22:15:36.128Z,69.38
2024-01-15T22:20:39.115Z,69.28
2024-01-15T22:25:41.070Z,69.02
2024-01-15T22:30:42.610Z,68.96
2024-01-15T22:35:45.643Z,68.91
2024-01-15T22:40:47.314Z,68.71
2024-01-15T22:45:49.044Z,68.65
2024-01-15T22:50:52.178Z,67.76
2024-01-15T22:55:53.703Z,68.46
2024-01-15T23:00:55.302Z,68.48
2024-01-15T23:05:58.290Z,68.09
2024-01-15T23:10:59.847Z,68.29
2024-01-15T23:16:01.594Z,68.43
2024-01-15T23:21:04.640Z,67.36
2024-01-15T23:26:06.569Z,67.87
2024-01-15T23:31:08.267Z,67.03
2024-01-15T23:36:11.225Z,67.41
2024-01-15T23:41:18.422Z,67.39
2024-01-15T23:46:20.197Z,66.83
2024-01-15T23:51:23.087Z,67.35
2024-01-15T23:56:24.723Z,67.94
